Aurelia, North Dakota
Current Conditions -  °F | °C
As of 10:55 PM on Wednesday 22 Oct 2014 (Local Time) from K08D Reporting Station
Clear Clear  
Wind Chill: 39°   Ceiling: Unl
Heat Index: 45°   Visibility: 10mi
Dew Point: 39°   Wind: 12mph
Humidity: 81%   Direction: 280°W
Pressure: 29.86"   Gusts: NA
Location:  48.4598°N, 101.907°W
Report Text: K08D 230355Z AUTO 28010KT 10SM CLR 07/04 A2986 RMK AO2
Loading
Personal Weather Stations






























Interactive Weather Map New forecast layout! Learn more

10-Day Weather Forecast

Advertisements
Track Severe Weather on mobile